Terminal Aerodrome Forecast
Issued by NWS

Home | Current Version | Previous Version | Text Only | Print | Product List | Glossary On
Versions: 1 2 3 4 5 6 7 8 9 10 11 12 13 14 15 16 17 18 19 20 21 22 23 24 25 26 27 28 29 30 31 32 33 34 35 36 37 38 39 40
000
FTUS45 KBOU 280604 AAA
TAFAPA
TAF AMD
KAPA 280604Z 2806/0106 02009KT P6SM SCT100 BKN220
     FM281000 14007KT P6SM BKN100
     FM281800 08010KT P6SM VCSH SCT060 OVC080
     FM282200 03012KT 3SM -SHSN OVC020
     FM010000 36012KT P6SM VCSH BKN030
     FM010200 33010KT P6SM BKN080
     FM010400 30010KT P6SM SCT140=

USA.gov is the U.S. government's official web portal to all federal, state and local government web resources and services.